sensor_id;sensor_type;location;lat;lon;timestamp;temperature;humidity
21590;DHT22;10957;50.968;6.828;2023-03-16T00:00:48;1.80;1.00
21590;DHT22;10957;50.968;6.828;2023-03-16T00:05:52;1.90;1.00
21590;DHT22;10957;50.968;6.828;2023-03-16T00:10:53;1.80;1.00
21590;DHT22;10957;50.968;6.828;2023-03-16T00:15:59;2.00;1.00
21590;DHT22;10957;50.968;6.828;2023-03-16T00:21:00;1.90;1.00
21590;DHT22;10957;50.968;6.828;2023-03-16T00:26:05;2.00;1.00
21590;DHT22;10957;50.968;6.828;2023-03-16T00:31:09;1.90;1.00
21590;DHT22;10957;50.968;6.828;2023-03-16T00:36:15;2.10;1.00
21590;DHT22;10957;50.968;6.828;2023-03-16T00:41:17;2.00;1.00
21590;DHT22;10957;50.968;6.828;2023-03-16T00:46:20;2.10;1.00
21590;DHT22;10957;50.968;6.828;2023-03-16T00:51:27;2.00;1.00
21590;DHT22;10957;50.968;6.828;2023-03-16T00:56:28;2.30;1.00
21590;DHT22;10957;50.968;6.828;2023-03-16T01:01:30;1.80;1.00
21590;DHT22;10957;50.968;6.828;2023-03-16T01:06:32;2.10;1.00
21590;DHT22;10957;50.968;6.828;2023-03-16T01:11:33;2.30;1.00
21590;DHT22;10957;50.968;6.828;2023-03-16T01:16:35;2.20;1.00
21590;DHT22;10957;50.968;6.828;2023-03-16T01:21:36;2.20;1.00
21590;DHT22;10957;50.968;6.828;2023-03-16T01:26:38;2.30;1.00
21590;DHT22;10957;50.968;6.828;2023-03-16T01:31:39;2.50;1.00
21590;DHT22;10957;50.968;6.828;2023-03-16T01:36:42;2.30;1.00
21590;DHT22;10957;50.968;6.828;2023-03-16T01:41:45;2.30;1.00
21590;DHT22;10957;50.968;6.828;2023-03-16T01:46:47;2.60;1.00
21590;DHT22;10957;50.968;6.828;2023-03-16T01:57:22;2.50;1.00
21590;DHT22;10957;50.968;6.828;2023-03-16T02:02:29;2.40;1.00
21590;DHT22;10957;50.968;6.828;2023-03-16T02:07:37;2.50;1.00
21590;DHT22;10957;50.968;6.828;2023-03-16T02:12:40;2.20;1.00
21590;DHT22;10957;50.968;6.828;2023-03-16T02:17:43;2.40;1.00
21590;DHT22;10957;50.968;6.828;2023-03-16T02:22:49;2.20;1.00
21590;DHT22;10957;50.968;6.828;2023-03-16T02:28:11;1.70;1.00
21590;DHT22;10957;50.968;6.828;2023-03-16T02:33:18;2.10;1.00
21590;DHT22;10957;50.968;6.828;2023-03-16T02:38:19;2.10;1.00
21590;DHT22;10957;50.968;6.828;2023-03-16T02:43:28;1.60;1.00
21590;DHT22;10957;50.968;6.828;2023-03-16T02:49:07;2.30;1.00
21590;DHT22;10957;50.968;6.828;2023-03-16T02:54:12;2.30;1.00
21590;DHT22;10957;50.968;6.828;2023-03-16T02:59:15;2.10;1.00
21590;DHT22;10957;50.968;6.828;2023-03-16T03:04:17;2.30;1.00
21590;DHT22;10957;50.968;6.828;2023-03-16T03:09:18;2.30;1.00
21590;DHT22;10957;50.968;6.828;2023-03-16T03:14:21;2.20;1.00
21590;DHT22;10957;50.968;6.828;2023-03-16T03:19:24;2.20;1.00
21590;DHT22;10957;50.968;6.828;2023-03-16T03:24:25;2.30;1.00
21590;DHT22;10957;50.968;6.828;2023-03-16T03:29:28;2.20;1.00
21590;DHT22;10957;50.968;6.828;2023-03-16T03:34:34;2.60;1.00
21590;DHT22;10957;50.968;6.828;2023-03-16T03:39:35;2.50;1.00
21590;DHT22;10957;50.968;6.828;2023-03-16T03:44:37;2.70;1.00
21590;DHT22;10957;50.968;6.828;2023-03-16T03:49:38;2.30;1.00
21590;DHT22;10957;50.968;6.828;2023-03-16T03:54:39;2.50;1.00
21590;DHT22;10957;50.968;6.828;2023-03-16T03:59:47;2.10;1.00
21590;DHT22;10957;50.968;6.828;2023-03-16T04:04:54;2.40;1.00
21590;DHT22;10957;50.968;6.828;2023-03-16T04:09:55;2.50;1.00
21590;DHT22;10957;50.968;6.828;2023-03-16T04:15:09;2.50;1.00
21590;DHT22;10957;50.968;6.828;2023-03-16T04:20:20;2.30;1.00
21590;DHT22;10957;50.968;6.828;2023-03-16T04:25:25;2.50;1.00
21590;DHT22;10957;50.968;6.828;2023-03-16T04:30:27;2.50;1.00
21590;DHT22;10957;50.968;6.828;2023-03-16T04:35:37;2.50;1.00
21590;DHT22;10957;50.968;6.828;2023-03-16T04:40:38;2.70;1.00
21590;DHT22;10957;50.968;6.828;2023-03-16T04:45:46;2.60;1.00
21590;DHT22;10957;50.968;6.828;2023-03-16T04:50:48;2.90;1.00
21590;DHT22;10957;50.968;6.828;2023-03-16T04:55:50;2.80;1.00
21590;DHT22;10957;50.968;6.828;2023-03-16T05:00:53;2.60;1.00
21590;DHT22;10957;50.968;6.828;2023-03-16T05:06:02;3.00;1.00
21590;DHT22;10957;50.968;6.828;2023-03-16T05:11:08;2.60;1.00
21590;DHT22;10957;50.968;6.828;2023-03-16T05:16:16;2.60;1.00
21590;DHT22;10957;50.968;6.828;2023-03-16T05:21:18;2.80;1.00
21590;DHT22;10957;50.968;6.828;2023-03-16T05:26:34;2.90;1.00
21590;DHT22;10957;50.968;6.828;2023-03-16T05:31:36;2.30;1.00
21590;DHT22;10957;50.968;6.828;2023-03-16T05:36:44;2.50;1.00
21590;DHT22;10957;50.968;6.828;2023-03-16T05:41:48;2.20;1.00
21590;DHT22;10957;50.968;6.828;2023-03-16T05:47:00;2.60;1.00
21590;DHT22;10957;50.968;6.828;2023-03-16T05:52:02;2.80;1.00
21590;DHT22;10957;50.968;6.828;2023-03-16T05:57:06;2.80;1.00
21590;DHT22;10957;50.968;6.828;2023-03-16T06:02:14;3.20;1.00
21590;DHT22;10957;50.968;6.828;2023-03-16T06:07:18;3.30;1.00
21590;DHT22;10957;50.968;6.828;2023-03-16T06:12:24;3.30;1.00
21590;DHT22;10957;50.968;6.828;2023-03-16T06:17:28;3.30;1.00
21590;DHT22;10957;50.968;6.828;2023-03-16T06:22:32;3.40;1.00
21590;DHT22;10957;50.968;6.828;2023-03-16T06:27:38;3.50;1.00
21590;DHT22;10957;50.968;6.828;2023-03-16T06:32:44;3.50;1.00
21590;DHT22;10957;50.968;6.828;2023-03-16T06:37:47;3.80;1.00
21590;DHT22;10957;50.968;6.828;2023-03-16T06:43:16;3.60;1.00
21590;DHT22;10957;50.968;6.828;2023-03-16T06:48:19;3.20;1.00
21590;DHT22;10957;50.968;6.828;2023-03-16T06:53:21;3.40;1.00
21590;DHT22;10957;50.968;6.828;2023-03-16T06:58:23;3.80;1.00
21590;DHT22;10957;50.968;6.828;2023-03-16T07:03:24;3.40;1.00
21590;DHT22;10957;50.968;6.828;2023-03-16T07:08:31;3.40;1.00
21590;DHT22;10957;50.968;6.828;2023-03-16T07:13:33;4.30;1.00
21590;DHT22;10957;50.968;6.828;2023-03-16T07:18:35;4.30;1.00
21590;DHT22;10957;50.968;6.828;2023-03-16T07:23:42;4.40;1.00
21590;DHT22;10957;50.968;6.828;2023-03-16T07:28:45;4.70;1.00
21590;DHT22;10957;50.968;6.828;2023-03-16T07:33:46;4.90;1.00
21590;DHT22;10957;50.968;6.828;2023-03-16T07:38:53;4.70;1.00
21590;DHT22;10957;50.968;6.828;2023-03-16T07:43:55;5.00;1.00
21590;DHT22;10957;50.968;6.828;2023-03-16T07:48:58;5.10;1.00
21590;DHT22;10957;50.968;6.828;2023-03-16T07:54:01;5.40;1.00
21590;DHT22;10957;50.968;6.828;2023-03-16T07:59:06;5.40;1.00
21590;DHT22;10957;50.968;6.828;2023-03-16T08:04:09;5.50;1.00
21590;DHT22;10957;50.968;6.828;2023-03-16T08:09:13;5.70;1.00
21590;DHT22;10957;50.968;6.828;2023-03-16T08:14:16;5.90;1.00
21590;DHT22;10957;50.968;6.828;2023-03-16T08:19:36;5.80;1.00
21590;DHT22;10957;50.968;6.828;2023-03-16T08:24:40;6.20;1.00
21590;DHT22;10957;50.968;6.828;2023-03-16T08:29:44;6.00;1.00
21590;DHT22;10957;50.968;6.828;2023-03-16T08:34:49;5.70;1.00
21590;DHT22;10957;50.968;6.828;2023-03-16T08:39:52;6.30;1.00
21590;DHT22;10957;50.968;6.828;2023-03-16T08:44:54;5.90;1.00
21590;DHT22;10957;50.968;6.828;2023-03-16T08:49:56;6.30;1.00
21590;DHT22;10957;50.968;6.828;2023-03-16T08:54:57;6.20;1.00
21590;DHT22;10957;50.968;6.828;2023-03-16T08:59:58;6.70;1.00
21590;DHT22;10957;50.968;6.828;2023-03-16T09:05:00;6.80;1.00
21590;DHT22;10957;50.968;6.828;2023-03-16T09:10:03;6.80;1.00
21590;DHT22;10957;50.968;6.828;2023-03-16T09:15:06;7.30;1.00
21590;DHT22;10957;50.968;6.828;2023-03-16T09:20:09;7.10;1.00
21590;DHT22;10957;50.968;6.828;2023-03-16T09:25:10;7.40;1.00
21590;DHT22;10957;50.968;6.828;2023-03-16T09:30:12;7.20;1.00
21590;DHT22;10957;50.968;6.828;2023-03-16T09:35:13;7.70;1.00
21590;DHT22;10957;50.968;6.828;2023-03-16T09:40:26;8.10;1.00
21590;DHT22;10957;50.968;6.828;2023-03-16T09:50:53;8.40;1.00
21590;DHT22;10957;50.968;6.828;2023-03-16T09:56:51;8.70;1.00
21590;DHT22;10957;50.968;6.828;2023-03-16T10:12:32;8.30;1.00
21590;DHT22;10957;50.968;6.828;2023-03-16T10:17:44;8.40;1.00
21590;DHT22;10957;50.968;6.828;2023-03-16T10:22:48;8.30;1.00
21590;DHT22;10957;50.968;6.828;2023-03-16T10:27:52;8.40;1.00
21590;DHT22;10957;50.968;6.828;2023-03-16T10:32:55;8.70;1.00
21590;DHT22;10957;50.968;6.828;2023-03-16T10:37:57;8.50;1.00
21590;DHT22;10957;50.968;6.828;2023-03-16T10:43:13;9.10;1.00
21590;DHT22;10957;50.968;6.828;2023-03-16T10:48:19;9.60;1.00
21590;DHT22;10957;50.968;6.828;2023-03-16T10:53:25;9.10;1.00
21590;DHT22;10957;50.968;6.828;2023-03-16T10:58:31;8.90;1.00
21590;DHT22;10957;50.968;6.828;2023-03-16T11:03:38;9.50;1.00
21590;DHT22;10957;50.968;6.828;2023-03-16T11:08:41;10.00;1.00
21590;DHT22;10957;50.968;6.828;2023-03-16T11:13:45;10.90;1.00
21590;DHT22;10957;50.968;6.828;2023-03-16T11:18:51;11.20;1.00
21590;DHT22;10957;50.968;6.828;2023-03-16T11:23:55;11.10;1.00
21590;DHT22;10957;50.968;6.828;2023-03-16T11:29:20;10.80;1.00
21590;DHT22;10957;50.968;6.828;2023-03-16T11:34:28;10.60;1.00
21590;DHT22;10957;50.968;6.828;2023-03-16T11:39:43;10.70;1.00
21590;DHT22;10957;50.968;6.828;2023-03-16T11:50:27;11.10;1.00
21590;DHT22;10957;50.968;6.828;2023-03-16T12:17:26;11.50;1.00
21590;DHT22;10957;50.968;6.828;2023-03-16T12:22:36;11.20;1.00
21590;DHT22;10957;50.968;6.828;2023-03-16T12:27:39;11.20;99.90
21590;DHT22;10957;50.968;6.828;2023-03-16T12:49:09;11.70;99.90
21590;DHT22;10957;50.968;6.828;2023-03-16T12:54:23;11.90;99.90
21590;DHT22;10957;50.968;6.828;2023-03-16T12:59:35;11.40;99.90
21590;DHT22;10957;50.968;6.828;2023-03-16T13:04:41;11.70;99.90
21590;DHT22;10957;50.968;6.828;2023-03-16T13:10:01;11.80;99.90
21590;DHT22;10957;50.968;6.828;2023-03-16T13:20:25;12.10;99.90
21590;DHT22;10957;50.968;6.828;2023-03-16T13:30:30;12.00;99.90
21590;DHT22;10957;50.968;6.828;2023-03-16T13:35:31;11.90;99.90
21590;DHT22;10957;50.968;6.828;2023-03-16T13:40:34;12.10;99.90
21590;DHT22;10957;50.968;6.828;2023-03-16T13:45:38;12.50;99.90
21590;DHT22;10957;50.968;6.828;2023-03-16T13:50:39;11.90;99.90
21590;DHT22;10957;50.968;6.828;2023-03-16T13:55:45;11.90;99.90
21590;DHT22;10957;50.968;6.828;2023-03-16T14:00:47;12.20;99.90
21590;DHT22;10957;50.968;6.828;2023-03-16T14:05:48;12.20;99.90
21590;DHT22;10957;50.968;6.828;2023-03-16T14:10:50;13.30;99.90
21590;DHT22;10957;50.968;6.828;2023-03-16T14:43:15;13.00;99.90
21590;DHT22;10957;50.968;6.828;2023-03-16T14:48:19;12.80;99.90
21590;DHT22;10957;50.968;6.828;2023-03-16T14:53:21;12.70;99.90
21590;DHT22;10957;50.968;6.828;2023-03-16T14:58:24;12.60;99.90
21590;DHT22;10957;50.968;6.828;2023-03-16T15:03:34;12.80;99.90
21590;DHT22;10957;50.968;6.828;2023-03-16T15:08:40;12.60;99.90
21590;DHT22;10957;50.968;6.828;2023-03-16T15:13:44;12.90;99.90
21590;DHT22;10957;50.968;6.828;2023-03-16T15:18:45;12.70;99.90
21590;DHT22;10957;50.968;6.828;2023-03-16T15:23:47;12.30;99.90
21590;DHT22;10957;50.968;6.828;2023-03-16T15:28:49;12.60;99.90
21590;DHT22;10957;50.968;6.828;2023-03-16T15:33:51;12.40;99.90
21590;DHT22;10957;50.968;6.828;2023-03-16T15:38:53;12.20;99.90
21590;DHT22;10957;50.968;6.828;2023-03-16T15:43:55;12.10;99.90
21590;DHT22;10957;50.968;6.828;2023-03-16T15:49:00;12.30;99.90
21590;DHT22;10957;50.968;6.828;2023-03-16T15:54:03;11.60;99.90
21590;DHT22;10957;50.968;6.828;2023-03-16T15:59:10;11.80;99.90
21590;DHT22;10957;50.968;6.828;2023-03-16T16:04:16;12.00;99.90
21590;DHT22;10957;50.968;6.828;2023-03-16T16:09:20;12.00;99.90
21590;DHT22;10957;50.968;6.828;2023-03-16T16:14:23;11.80;99.90
21590;DHT22;10957;50.968;6.828;2023-03-16T16:19:25;11.70;99.90
21590;DHT22;10957;50.968;6.828;2023-03-16T16:24:27;11.70;99.90
21590;DHT22;10957;50.968;6.828;2023-03-16T16:29:30;11.70;99.90
21590;DHT22;10957;50.968;6.828;2023-03-16T16:34:33;11.80;99.90
21590;DHT22;10957;50.968;6.828;2023-03-16T16:39:35;11.60;99.90
21590;DHT22;10957;50.968;6.828;2023-03-16T16:44:36;11.40;99.90
21590;DHT22;10957;50.968;6.828;2023-03-16T16:49:38;11.40;99.90
21590;DHT22;10957;50.968;6.828;2023-03-16T16:54:39;11.50;99.90
21590;DHT22;10957;50.968;6.828;2023-03-16T16:59:40;11.30;99.90
21590;DHT22;10957;50.968;6.828;2023-03-16T17:04:44;11.00;99.90
21590;DHT22;10957;50.968;6.828;2023-03-16T17:09:45;10.90;99.90
21590;DHT22;10957;50.968;6.828;2023-03-16T17:14:47;11.00;99.90
21590;DHT22;10957;50.968;6.828;2023-03-16T17:19:48;10.70;99.90
21590;DHT22;10957;50.968;6.828;2023-03-16T17:24:51;10.50;99.90
21590;DHT22;10957;50.968;6.828;2023-03-16T17:29:53;10.70;99.90
21590;DHT22;10957;50.968;6.828;2023-03-16T17:34:55;10.50;99.90
21590;DHT22;10957;50.968;6.828;2023-03-16T17:39:56;10.40;99.90
21590;DHT22;10957;50.968;6.828;2023-03-16T17:44:57;10.30;99.90
21590;DHT22;10957;50.968;6.828;2023-03-16T17:49:59;10.30;99.90
21590;DHT22;10957;50.968;6.828;2023-03-16T17:55:01;10.10;99.90
21590;DHT22;10957;50.968;6.828;2023-03-16T18:00:06;10.00;99.90
21590;DHT22;10957;50.968;6.828;2023-03-16T18:10:29;9.90;99.90
21590;DHT22;10957;50.968;6.828;2023-03-16T18:15:34;9.80;99.90
21590;DHT22;10957;50.968;6.828;2023-03-16T18:20:36;9.60;99.90
21590;DHT22;10957;50.968;6.828;2023-03-16T18:25:37;9.50;99.90
21590;DHT22;10957;50.968;6.828;2023-03-16T18:30:44;9.60;99.90
21590;DHT22;10957;50.968;6.828;2023-03-16T18:35:45;9.60;99.90
21590;DHT22;10957;50.968;6.828;2023-03-16T18:40:47;9.60;99.90
21590;DHT22;10957;50.968;6.828;2023-03-16T18:45:49;9.70;99.90
21590;DHT22;10957;50.968;6.828;2023-03-16T18:50:50;9.50;99.90
21590;DHT22;10957;50.968;6.828;2023-03-16T18:55:52;9.70;99.90
21590;DHT22;10957;50.968;6.828;2023-03-16T19:00:57;9.50;99.90
21590;DHT22;10957;50.968;6.828;2023-03-16T19:06:00;9.50;99.90
21590;DHT22;10957;50.968;6.828;2023-03-16T19:11:01;9.30;99.90
21590;DHT22;10957;50.968;6.828;2023-03-16T19:16:08;9.10;99.90
21590;DHT22;10957;50.968;6.828;2023-03-16T19:21:19;9.20;99.90
21590;DHT22;10957;50.968;6.828;2023-03-16T19:26:23;9.30;99.90
21590;DHT22;10957;50.968;6.828;2023-03-16T19:31:26;9.20;99.90
21590;DHT22;10957;50.968;6.828;2023-03-16T19:36:30;9.30;99.90
21590;DHT22;10957;50.968;6.828;2023-03-16T19:41:34;9.40;99.90
21590;DHT22;10957;50.968;6.828;2023-03-16T19:46:37;9.10;99.90
21590;DHT22;10957;50.968;6.828;2023-03-16T19:51:39;8.90;99.90
21590;DHT22;10957;50.968;6.828;2023-03-16T19:56:40;9.00;99.90
21590;DHT22;10957;50.968;6.828;2023-03-16T20:01:42;9.20;99.90
21590;DHT22;10957;50.968;6.828;2023-03-16T20:06:44;8.90;99.90
21590;DHT22;10957;50.968;6.828;2023-03-16T20:11:46;8.80;99.90
21590;DHT22;10957;50.968;6.828;2023-03-16T20:16:48;8.70;99.90
21590;DHT22;10957;50.968;6.828;2023-03-16T20:21:49;8.60;99.90
21590;DHT22;10957;50.968;6.828;2023-03-16T20:26:51;8.50;99.90
21590;DHT22;10957;50.968;6.828;2023-03-16T20:31:54;8.70;99.90
21590;DHT22;10957;50.968;6.828;2023-03-16T20:36:56;8.50;99.90
21590;DHT22;10957;50.968;6.828;2023-03-16T20:41:57;8.50;99.90
21590;DHT22;10957;50.968;6.828;2023-03-16T20:46:59;8.70;99.90
21590;DHT22;10957;50.968;6.828;2023-03-16T20:52:00;8.50;99.90
21590;DHT22;10957;50.968;6.828;2023-03-16T20:57:01;8.50;99.90
21590;DHT22;10957;50.968;6.828;2023-03-16T21:07:25;8.60;99.90
21590;DHT22;10957;50.968;6.828;2023-03-16T21:12:29;8.70;99.90
21590;DHT22;10957;50.968;6.828;2023-03-16T21:17:36;8.60;99.90
21590;DHT22;10957;50.968;6.828;2023-03-16T21:22:38;8.80;99.90
21590;DHT22;10957;50.968;6.828;2023-03-16T21:27:39;8.60;99.90
21590;DHT22;10957;50.968;6.828;2023-03-16T21:32:41;8.60;99.90
21590;DHT22;10957;50.968;6.828;2023-03-16T21:37:42;8.70;99.90
21590;DHT22;10957;50.968;6.828;2023-03-16T21:42:44;8.40;99.90
21590;DHT22;10957;50.968;6.828;2023-03-16T21:47:47;8.60;99.90
21590;DHT22;10957;50.968;6.828;2023-03-16T21:52:49;8.40;99.90
21590;DHT22;10957;50.968;6.828;2023-03-16T21:57:52;8.50;99.90
21590;DHT22;10957;50.968;6.828;2023-03-16T22:02:56;8.40;99.90
21590;DHT22;10957;50.968;6.828;2023-03-16T22:07:59;8.50;99.90
21590;DHT22;10957;50.968;6.828;2023-03-16T22:13:02;8.40;99.90
21590;DHT22;10957;50.968;6.828;2023-03-16T22:18:06;8.30;99.90
21590;DHT22;10957;50.968;6.828;2023-03-16T22:28:27;8.20;99.90
21590;DHT22;10957;50.968;6.828;2023-03-16T22:33:31;8.50;99.90
21590;DHT22;10957;50.968;6.828;2023-03-16T22:38:35;8.50;99.90
21590;DHT22;10957;50.968;6.828;2023-03-16T22:43:37;8.60;99.90
21590;DHT22;10957;50.968;6.828;2023-03-16T22:48:39;8.50;99.90
21590;DHT22;10957;50.968;6.828;2023-03-16T22:53:44;8.50;99.90
21590;DHT22;10957;50.968;6.828;2023-03-16T22:58:50;8.50;99.90
21590;DHT22;10957;50.968;6.828;2023-03-16T23:03:52;8.40;99.90
21590;DHT22;10957;50.968;6.828;2023-03-16T23:08:54;8.70;99.90
21590;DHT22;10957;50.968;6.828;2023-03-16T23:13:55;8.70;99.90
21590;DHT22;10957;50.968;6.828;2023-03-16T23:18:58;8.60;99.90
21590;DHT22;10957;50.968;6.828;2023-03-16T23:23:59;8.30;99.90
21590;DHT22;10957;50.968;6.828;2023-03-16T23:29:01;8.50;99.90
21590;DHT22;10957;50.968;6.828;2023-03-16T23:34:16;8.70;99.90
21590;DHT22;10957;50.968;6.828;2023-03-16T23:39:18;8.50;99.90
21590;DHT22;10957;50.968;6.828;2023-03-16T23:44:22;8.50;99.90
21590;DHT22;10957;50.968;6.828;2023-03-16T23:49:28;8.60;99.90
21590;DHT22;10957;50.968;6.828;2023-03-16T23:54:32;8.60;99.90
21590;DHT22;10957;50.968;6.828;2023-03-16T23:59:33;8.50;99.90
